GreenTxt   -   no warnings

Nearby METAR Reports

 

ENZV - Stavanger
Päivitetty: 17/11/2018 03:50
Few clouds
Few clouds
 Tuulen suunta varies
Tuuli: varies 6 km/h
Lämpötila: 4°C
Kastepiste: 3°C
Kosteus: 93%
Ilmanpaine: 1037 hPa
Clouds: Few clouds
Visibility: 10 km
2018/11/17 02:50 ENZV 170250Z VRB03KT 9999 FEW011 04/03 Q1037
ENBR - Bergen
Päivitetty: 17/11/2018 03:50
Enimmäkseen pilvistä
Enimmäkseen pilvistä
 Tuulen suunta E
Tuuli: E 11 km/h
Lämpötila: 8°C
Wind Chill: 6°C
Kastepiste: 6°C
Kosteus: 87%
Ilmanpaine: 1036 hPa
Clouds: Enimmäkseen pilvistä
Visibility: 10 km
2018/11/17 02:50 ENBR 170250Z 18006KT 9999 SCT009 BKN017 08/06 Q1036 RMK WIND 1200FT 19010KT
 
ENHD - Haugesund
Päivitetty: 17/11/2018 03:50
Vaihetelvaa
Vaihetelvaa
 Tuulen suunta E
Tuuli: E 11 km/h
Lämpötila: 5°C
Wind Chill: 2°C
Kastepiste: 4°C
Kosteus: 93%
Ilmanpaine: 1037 hPa
Clouds: Vaihetelvaa
Visibility: 7 km
2018/11/17 02:50 ENHD 170250Z AUTO 17006KT 7000 OVC015/// 05/04 Q1037
ENCN - Kristiansand
Päivitetty: 17/11/2018 03:50
Vaihetelvaa
Vaihetelvaa
 Tuulen suunta IKO
Tuuli: IKO 9 km/h
Lämpötila: 6°C
Wind Chill: 4°C
Kastepiste: 5°C
Kosteus: 93%
Ilmanpaine: 1039 hPa
Clouds: Vaihetelvaa
Visibility: 10 km
2018/11/17 02:50 ENCN 170250Z AUTO 06005KT 9999 OVC020/// 06/05 Q1039
 
ENBO - Bodø
Päivitetty: 17/11/2018 03:50
Light rain, showers, partly cloudy
Light rain, showers, partly cloudy
 Tuulen suunta LLO
Tuuli: LLO 44 km/h
Lämpötila: 7°C
Wind Chill: 2°C
Kastepiste: 7°C
Kosteus: 100%
Ilmanpaine: 1029 hPa
Yhteenveto: Light rain, showers
Clouds: Puolipilvistä
Visibility: 10 km
2018/11/17 02:50 ENBO 170250Z 25024KT 9999 -SHRA FEW008 SCT015 07/07 Q1029
ENKR - Kirkenes
Päivitetty: 17/11/2018 03:50
Enimmäkseen pilvistä
Enimmäkseen pilvistä
 Tuulen suunta E
Tuuli: E 6 km/h
Lämpötila: 3°C
Kastepiste: 1°C
Kosteus: 87%
Ilmanpaine: 1008 hPa
Clouds: Enimmäkseen pilvistä
Visibility: 10 km
2018/11/17 02:50 ENKR 170250Z AUTO 17003KT 110V260 9999 BKN078/// 03/01 Q1008 RMK WIND 731FT 24018KT
 
ENVA - Trondheim
Päivitetty: 17/11/2018 03:50
Enimmäkseen pilvistä
Enimmäkseen pilvistä
 Tuulen suunta varies
Tuuli: varies 6 km/h
Lämpötila: 7°C
Kastepiste: 6°C
Kosteus: 93%
Ilmanpaine: 1036 hPa
Clouds: Enimmäkseen pilvistä
Visibility: 10 km
2018/11/17 02:50 ENVA 170250Z VRB03KT 9999 BKN018 07/06 Q1036 RMK WIND 670FT 22005KT
ENGM - Oslo
Päivitetty: 17/11/2018 03:50
Vaihetelvaa
Vaihetelvaa
 Tuulen suunta LU
Tuuli: LU 6 km/h
Lämpötila: 4°C
Kastepiste: 3°C
Kosteus: 93%
Ilmanpaine: 1038 hPa
Clouds: Vaihetelvaa
Visibility: 10 km
2018/11/17 02:50 ENGM 170250Z 32003KT 290V350 9999 OVC010 04/03 Q1038